Terminal Aerodrome Forecast
Issued by NWS

Home | Current Version | Previous Version | Text Only | Print | Product List | Glossary On
Versions: 1 2 3 4 5 6 7 8 9 10 11 12 13 14 15 16 17 18 19
000
FTAK31 PAFA 170923 AAC
TAFAFA
TAF AMD
PAFA 170923Z 1709/1812 03004KT 1SM -FZRASN BKN004 OVC010
     FM171200 02002KT P6SM VCSH OVC050
     FM171600 04004KT P6SM SCT035 BKN100=

USA.gov is the U.S. government's official web portal to all federal, state and local government web resources and services.